sensor_id;sensor_type;location;lat;lon;timestamp;P1;durP1;ratioP1;P2;durP2;ratioP2
41077;SDS011;26823;42.662;23.352;2023-03-01T00:01:46;4.03;;;3.30;;
41077;SDS011;26823;42.662;23.352;2023-03-01T00:04:11;5.50;;;3.50;;
41077;SDS011;26823;42.662;23.352;2023-03-01T00:06:37;5.28;;;3.80;;
41077;SDS011;26823;42.662;23.352;2023-03-01T00:09:03;4.72;;;3.08;;
41077;SDS011;26823;42.662;23.352;2023-03-01T00:11:29;4.90;;;3.65;;
41077;SDS011;26823;42.662;23.352;2023-03-01T00:13:58;4.13;;;2.95;;
41077;SDS011;26823;42.662;23.352;2023-03-01T00:16:30;5.00;;;3.20;;
41077;SDS011;26823;42.662;23.352;2023-03-01T00:18:58;5.05;;;3.33;;
41077;SDS011;26823;42.662;23.352;2023-03-01T00:21:24;5.05;;;3.25;;
41077;SDS011;26823;42.662;23.352;2023-03-01T00:23:50;4.47;;;3.28;;
41077;SDS011;26823;42.662;23.352;2023-03-01T00:26:16;4.75;;;3.47;;
41077;SDS011;26823;42.662;23.352;2023-03-01T00:28:43;4.47;;;2.75;;
41077;SDS011;26823;42.662;23.352;2023-03-01T00:31:13;4.15;;;2.40;;
41077;SDS011;26823;42.662;23.352;2023-03-01T00:33:44;5.50;;;2.80;;
41077;SDS011;26823;42.662;23.352;2023-03-01T00:36:11;3.65;;;2.60;;
41077;SDS011;26823;42.662;23.352;2023-03-01T00:38:41;5.45;;;3.30;;
41077;SDS011;26823;42.662;23.352;2023-03-01T00:41:12;3.97;;;2.67;;
41077;SDS011;26823;42.662;23.352;2023-03-01T00:43:39;3.88;;;2.80;;
41077;SDS011;26823;42.662;23.352;2023-03-01T00:46:06;5.53;;;3.20;;
41077;SDS011;26823;42.662;23.352;2023-03-01T00:48:34;4.32;;;2.72;;
41077;SDS011;26823;42.662;23.352;2023-03-01T00:51:19;4.53;;;2.95;;
41077;SDS011;26823;42.662;23.352;2023-03-01T00:53:46;4.32;;;2.80;;
41077;SDS011;26823;42.662;23.352;2023-03-01T00:56:14;3.08;;;2.28;;
41077;SDS011;26823;42.662;23.352;2023-03-01T00:58:40;3.08;;;2.67;;
41077;SDS011;26823;42.662;23.352;2023-03-01T01:01:10;3.63;;;2.60;;
41077;SDS011;26823;42.662;23.352;2023-03-01T01:03:44;3.45;;;2.70;;
41077;SDS011;26823;42.662;23.352;2023-03-01T01:06:13;3.75;;;2.60;;
41077;SDS011;26823;42.662;23.352;2023-03-01T01:08:43;2.58;;;2.08;;
41077;SDS011;26823;42.662;23.352;2023-03-01T01:11:11;3.00;;;2.60;;
41077;SDS011;26823;42.662;23.352;2023-03-01T01:13:37;2.78;;;2.53;;
41077;SDS011;26823;42.662;23.352;2023-03-01T01:16:03;4.15;;;2.55;;
41077;SDS011;26823;42.662;23.352;2023-03-01T01:18:29;2.45;;;2.15;;
41077;SDS011;26823;42.662;23.352;2023-03-01T01:20:55;3.28;;;2.55;;
41077;SDS011;26823;42.662;23.352;2023-03-01T01:23:20;3.55;;;2.50;;
41077;SDS011;26823;42.662;23.352;2023-03-01T01:25:45;3.40;;;2.20;;
41077;SDS011;26823;42.662;23.352;2023-03-01T01:28:11;2.53;;;2.15;;
41077;SDS011;26823;42.662;23.352;2023-03-01T01:30:36;1.80;;;1.70;;
41077;SDS011;26823;42.662;23.352;2023-03-01T01:33:02;2.53;;;1.70;;
41077;SDS011;26823;42.662;23.352;2023-03-01T01:35:27;2.78;;;1.77;;
41077;SDS011;26823;42.662;23.352;2023-03-01T01:37:53;2.35;;;1.70;;
41077;SDS011;26823;42.662;23.352;2023-03-01T01:40:18;1.70;;;1.45;;
41077;SDS011;26823;42.662;23.352;2023-03-01T01:42:44;2.00;;;1.80;;
41077;SDS011;26823;42.662;23.352;2023-03-01T01:45:26;2.80;;;1.80;;
41077;SDS011;26823;42.662;23.352;2023-03-01T01:47:52;2.15;;;1.88;;
41077;SDS011;26823;42.662;23.352;2023-03-01T01:50:20;3.63;;;2.08;;
41077;SDS011;26823;42.662;23.352;2023-03-01T01:52:46;1.80;;;1.70;;
41077;SDS011;26823;42.662;23.352;2023-03-01T01:55:15;2.33;;;1.70;;
41077;SDS011;26823;42.662;23.352;2023-03-01T01:57:51;1.95;;;1.83;;
41077;SDS011;26823;42.662;23.352;2023-03-01T02:00:21;1.90;;;1.77;;
41077;SDS011;26823;42.662;23.352;2023-03-01T02:02:51;1.80;;;1.70;;
41077;SDS011;26823;42.662;23.352;2023-03-01T02:07:53;2.28;;;2.08;;
41077;SDS011;26823;42.662;23.352;2023-03-01T02:10:21;1.92;;;1.83;;
41077;SDS011;26823;42.662;23.352;2023-03-01T02:12:48;3.03;;;2.28;;
41077;SDS011;26823;42.662;23.352;2023-03-01T02:15:14;2.25;;;1.98;;
41077;SDS011;26823;42.662;23.352;2023-03-01T02:17:39;2.42;;;2.22;;
41077;SDS011;26823;42.662;23.352;2023-03-01T02:23:16;2.13;;;1.63;;
41077;SDS011;26823;42.662;23.352;2023-03-01T02:28:29;2.30;;;2.00;;
41077;SDS011;26823;42.662;23.352;2023-03-01T02:30:56;2.10;;;1.90;;
41077;SDS011;26823;42.662;23.352;2023-03-01T02:34:00;2.30;;;2.10;;
41077;SDS011;26823;42.662;23.352;2023-03-01T02:36:30;2.30;;;2.10;;
41077;SDS011;26823;42.662;23.352;2023-03-01T02:39:00;2.17;;;1.98;;
41077;SDS011;26823;42.662;23.352;2023-03-01T02:41:28;2.30;;;2.08;;
41077;SDS011;26823;42.662;23.352;2023-03-01T02:43:57;2.78;;;2.10;;
41077;SDS011;26823;42.662;23.352;2023-03-01T02:46:23;3.30;;;2.53;;
41077;SDS011;26823;42.662;23.352;2023-03-01T02:48:52;2.35;;;2.15;;
41077;SDS011;26823;42.662;23.352;2023-03-01T02:52:04;2.83;;;2.20;;
41077;SDS011;26823;42.662;23.352;2023-03-01T02:56:43;2.78;;;2.25;;
41077;SDS011;26823;42.662;23.352;2023-03-01T02:59:09;2.60;;;2.30;;
41077;SDS011;26823;42.662;23.352;2023-03-01T03:01:36;2.53;;;2.17;;
41077;SDS011;26823;42.662;23.352;2023-03-01T03:04:05;2.75;;;2.25;;
41077;SDS011;26823;42.662;23.352;2023-03-01T03:06:33;2.15;;;1.90;;
41077;SDS011;26823;42.662;23.352;2023-03-01T03:08:59;4.35;;;2.75;;
41077;SDS011;26823;42.662;23.352;2023-03-01T03:11:25;3.13;;;2.40;;
41077;SDS011;26823;42.662;23.352;2023-03-01T03:13:51;3.20;;;2.60;;
41077;SDS011;26823;42.662;23.352;2023-03-01T03:16:17;4.07;;;2.53;;
41077;SDS011;26823;42.662;23.352;2023-03-01T03:18:43;3.63;;;2.85;;
41077;SDS011;26823;42.662;23.352;2023-03-01T03:21:09;3.95;;;2.92;;
41077;SDS011;26823;42.662;23.352;2023-03-01T03:23:36;4.30;;;3.25;;
41077;SDS011;26823;42.662;23.352;2023-03-01T03:26:02;3.50;;;2.75;;
41077;SDS011;26823;42.662;23.352;2023-03-01T03:28:29;3.17;;;2.58;;
41077;SDS011;26823;42.662;23.352;2023-03-01T03:30:55;2.85;;;2.17;;
41077;SDS011;26823;42.662;23.352;2023-03-01T03:33:21;3.70;;;2.55;;
41077;SDS011;26823;42.662;23.352;2023-03-01T03:35:48;2.67;;;2.30;;
41077;SDS011;26823;42.662;23.352;2023-03-01T03:38:15;4.18;;;2.13;;
41077;SDS011;26823;42.662;23.352;2023-03-01T03:40:47;3.10;;;2.10;;
41077;SDS011;26823;42.662;23.352;2023-03-01T03:43:16;4.57;;;2.45;;
41077;SDS011;26823;42.662;23.352;2023-03-01T03:45:43;2.72;;;2.30;;
41077;SDS011;26823;42.662;23.352;2023-03-01T03:48:10;2.65;;;2.13;;
41077;SDS011;26823;42.662;23.352;2023-03-01T03:50:37;2.55;;;2.13;;
41077;SDS011;26823;42.662;23.352;2023-03-01T03:53:04;2.63;;;1.95;;
41077;SDS011;26823;42.662;23.352;2023-03-01T03:55:32;4.15;;;2.50;;
41077;SDS011;26823;42.662;23.352;2023-03-01T03:57:59;2.45;;;1.88;;
41077;SDS011;26823;42.662;23.352;2023-03-01T04:00:31;2.92;;;2.10;;
41077;SDS011;26823;42.662;23.352;2023-03-01T04:02:58;2.50;;;2.15;;
41077;SDS011;26823;42.662;23.352;2023-03-01T04:05:23;2.25;;;2.03;;
41077;SDS011;26823;42.662;23.352;2023-03-01T04:07:49;2.75;;;2.20;;
41077;SDS011;26823;42.662;23.352;2023-03-01T04:10:25;4.10;;;1.80;;
41077;SDS011;26823;42.662;23.352;2023-03-01T04:12:52;2.63;;;2.17;;
41077;SDS011;26823;42.662;23.352;2023-03-01T04:15:18;3.03;;;2.30;;
41077;SDS011;26823;42.662;23.352;2023-03-01T04:17:44;3.13;;;2.40;;
41077;SDS011;26823;42.662;23.352;2023-03-01T04:20:11;2.33;;;2.00;;
41077;SDS011;26823;42.662;23.352;2023-03-01T04:22:39;3.50;;;2.35;;
41077;SDS011;26823;42.662;23.352;2023-03-01T04:25:05;3.58;;;2.25;;
41077;SDS011;26823;42.662;23.352;2023-03-01T04:27:35;3.42;;;2.67;;
41077;SDS011;26823;42.662;23.352;2023-03-01T04:30:01;4.95;;;2.13;;
41077;SDS011;26823;42.662;23.352;2023-03-01T04:32:30;3.08;;;2.38;;
41077;SDS011;26823;42.662;23.352;2023-03-01T04:34:55;2.58;;;2.30;;
41077;SDS011;26823;42.662;23.352;2023-03-01T04:37:20;3.03;;;2.42;;
41077;SDS011;26823;42.662;23.352;2023-03-01T04:39:46;3.22;;;2.20;;
41077;SDS011;26823;42.662;23.352;2023-03-01T04:42:12;3.92;;;2.15;;
41077;SDS011;26823;42.662;23.352;2023-03-01T04:44:38;3.10;;;2.05;;
41077;SDS011;26823;42.662;23.352;2023-03-01T04:47:03;2.95;;;2.10;;
41077;SDS011;26823;42.662;23.352;2023-03-01T04:49:29;2.38;;;1.77;;
41077;SDS011;26823;42.662;23.352;2023-03-01T04:51:54;3.67;;;2.42;;
41077;SDS011;26823;42.662;23.352;2023-03-01T04:54:20;2.20;;;1.95;;
41077;SDS011;26823;42.662;23.352;2023-03-01T04:56:45;3.15;;;2.42;;
41077;SDS011;26823;42.662;23.352;2023-03-01T04:59:11;4.03;;;2.65;;
41077;SDS011;26823;42.662;23.352;2023-03-01T05:01:37;2.63;;;2.20;;
41077;SDS011;26823;42.662;23.352;2023-03-01T05:04:03;4.10;;;2.42;;
41077;SDS011;26823;42.662;23.352;2023-03-01T05:06:30;2.55;;;2.00;;
41077;SDS011;26823;42.662;23.352;2023-03-01T05:08:56;2.85;;;2.17;;
41077;SDS011;26823;42.662;23.352;2023-03-01T05:11:22;2.45;;;1.85;;
41077;SDS011;26823;42.662;23.352;2023-03-01T05:13:47;2.42;;;2.00;;
41077;SDS011;26823;42.662;23.352;2023-03-01T05:16:14;2.83;;;1.90;;
41077;SDS011;26823;42.662;23.352;2023-03-01T05:18:41;3.95;;;2.05;;
41077;SDS011;26823;42.662;23.352;2023-03-01T05:21:12;5.07;;;1.80;;
41077;SDS011;26823;42.662;23.352;2023-03-01T05:23:40;3.08;;;2.03;;
41077;SDS011;26823;42.662;23.352;2023-03-01T05:26:07;2.10;;;1.90;;
41077;SDS011;26823;42.662;23.352;2023-03-01T05:28:32;3.30;;;2.33;;
41077;SDS011;26823;42.662;23.352;2023-03-01T05:30:58;2.20;;;1.95;;
41077;SDS011;26823;42.662;23.352;2023-03-01T05:33:24;3.13;;;2.22;;
41077;SDS011;26823;42.662;23.352;2023-03-01T05:35:51;3.58;;;1.80;;
41077;SDS011;26823;42.662;23.352;2023-03-01T05:38:17;2.92;;;2.05;;
41077;SDS011;26823;42.662;23.352;2023-03-01T05:40:44;2.53;;;1.88;;
41077;SDS011;26823;42.662;23.352;2023-03-01T05:43:12;1.75;;;1.65;;
41077;SDS011;26823;42.662;23.352;2023-03-01T05:45:39;2.20;;;1.92;;
41077;SDS011;26823;42.662;23.352;2023-03-01T05:48:06;2.13;;;1.67;;
41077;SDS011;26823;42.662;23.352;2023-03-01T05:50:33;2.63;;;2.00;;
41077;SDS011;26823;42.662;23.352;2023-03-01T05:53:02;1.60;;;1.27;;
41077;SDS011;26823;42.662;23.352;2023-03-01T05:55:28;2.65;;;1.98;;
41077;SDS011;26823;42.662;23.352;2023-03-01T05:57:54;2.67;;;2.08;;
41077;SDS011;26823;42.662;23.352;2023-03-01T06:00:20;2.25;;;1.98;;
41077;SDS011;26823;42.662;23.352;2023-03-01T06:02:49;2.30;;;2.03;;
41077;SDS011;26823;42.662;23.352;2023-03-01T06:05:15;4.90;;;2.30;;
41077;SDS011;26823;42.662;23.352;2023-03-01T06:07:41;2.90;;;1.83;;
41077;SDS011;26823;42.662;23.352;2023-03-01T06:10:07;2.05;;;1.85;;
41077;SDS011;26823;42.662;23.352;2023-03-01T06:12:34;2.70;;;2.20;;
41077;SDS011;26823;42.662;23.352;2023-03-01T06:15:01;3.15;;;2.05;;
41077;SDS011;26823;42.662;23.352;2023-03-01T06:17:31;5.53;;;2.30;;
41077;SDS011;26823;42.662;23.352;2023-03-01T06:20:02;7.00;;;2.17;;
41077;SDS011;26823;42.662;23.352;2023-03-01T06:22:31;3.70;;;2.47;;
41077;SDS011;26823;42.662;23.352;2023-03-01T06:24:56;2.92;;;2.42;;
41077;SDS011;26823;42.662;23.352;2023-03-01T06:27:22;2.85;;;2.45;;
41077;SDS011;26823;42.662;23.352;2023-03-01T06:29:47;2.65;;;2.40;;
41077;SDS011;26823;42.662;23.352;2023-03-01T06:32:13;4.18;;;2.55;;
41077;SDS011;26823;42.662;23.352;2023-03-01T06:34:39;4.57;;;2.40;;
41077;SDS011;26823;42.662;23.352;2023-03-01T06:37:05;2.80;;;2.53;;
41077;SDS011;26823;42.662;23.352;2023-03-01T06:39:32;3.75;;;2.75;;
41077;SDS011;26823;42.662;23.352;2023-03-01T06:41:57;6.30;;;2.67;;
41077;SDS011;26823;42.662;23.352;2023-03-01T06:44:23;5.13;;;2.58;;
41077;SDS011;26823;42.662;23.352;2023-03-01T06:46:48;2.40;;;2.20;;
41077;SDS011;26823;42.662;23.352;2023-03-01T06:49:14;3.50;;;2.15;;
41077;SDS011;26823;42.662;23.352;2023-03-01T06:51:41;3.45;;;2.22;;
41077;SDS011;26823;42.662;23.352;2023-03-01T06:54:08;3.38;;;2.10;;
41077;SDS011;26823;42.662;23.352;2023-03-01T06:56:33;2.88;;;2.17;;
41077;SDS011;26823;42.662;23.352;2023-03-01T06:58:59;5.05;;;2.40;;
41077;SDS011;26823;42.662;23.352;2023-03-01T07:01:24;2.70;;;2.20;;
41077;SDS011;26823;42.662;23.352;2023-03-01T07:03:50;3.60;;;2.30;;
41077;SDS011;26823;42.662;23.352;2023-03-01T07:06:15;3.40;;;2.33;;
41077;SDS011;26823;42.662;23.352;2023-03-01T07:08:42;3.67;;;1.83;;
41077;SDS011;26823;42.662;23.352;2023-03-01T07:11:08;3.65;;;2.40;;
41077;SDS011;26823;42.662;23.352;2023-03-01T07:13:33;7.28;;;1.85;;
41077;SDS011;26823;42.662;23.352;2023-03-01T07:15:58;2.88;;;2.40;;
41077;SDS011;26823;42.662;23.352;2023-03-01T07:18:24;3.50;;;2.30;;
41077;SDS011;26823;42.662;23.352;2023-03-01T07:20:49;4.38;;;1.95;;
41077;SDS011;26823;42.662;23.352;2023-03-01T07:23:15;2.47;;;2.00;;
41077;SDS011;26823;42.662;23.352;2023-03-01T07:25:40;2.05;;;1.80;;
41077;SDS011;26823;42.662;23.352;2023-03-01T07:28:06;2.20;;;1.48;;
41077;SDS011;26823;42.662;23.352;2023-03-01T07:30:31;2.10;;;1.90;;
41077;SDS011;26823;42.662;23.352;2023-03-01T07:32:57;4.93;;;2.15;;
41077;SDS011;26823;42.662;23.352;2023-03-01T07:35:24;1.90;;;1.73;;
41077;SDS011;26823;42.662;23.352;2023-03-01T07:37:51;5.60;;;2.10;;
41077;SDS011;26823;42.662;23.352;2023-03-01T07:40:17;1.95;;;1.55;;
41077;SDS011;26823;42.662;23.352;2023-03-01T07:42:42;4.20;;;2.08;;
41077;SDS011;26823;42.662;23.352;2023-03-01T07:45:08;4.38;;;1.80;;
41077;SDS011;26823;42.662;23.352;2023-03-01T07:47:34;1.83;;;1.67;;
41077;SDS011;26823;42.662;23.352;2023-03-01T07:50:00;3.53;;;1.88;;
41077;SDS011;26823;42.662;23.352;2023-03-01T07:52:26;8.13;;;1.70;;
41077;SDS011;26823;42.662;23.352;2023-03-01T07:54:52;2.17;;;1.80;;
41077;SDS011;26823;42.662;23.352;2023-03-01T07:57:17;3.28;;;1.40;;
41077;SDS011;26823;42.662;23.352;2023-03-01T07:59:42;3.35;;;2.05;;
41077;SDS011;26823;42.662;23.352;2023-03-01T08:02:08;1.83;;;1.63;;
41077;SDS011;26823;42.662;23.352;2023-03-01T08:04:35;1.80;;;1.67;;
41077;SDS011;26823;42.662;23.352;2023-03-01T08:07:00;2.38;;;1.83;;
41077;SDS011;26823;42.662;23.352;2023-03-01T08:09:26;2.05;;;1.50;;
41077;SDS011;26823;42.662;23.352;2023-03-01T08:11:51;1.52;;;1.33;;
41077;SDS011;26823;42.662;23.352;2023-03-01T08:14:16;1.88;;;1.52;;
41077;SDS011;26823;42.662;23.352;2023-03-01T08:16:42;3.88;;;1.70;;
41077;SDS011;26823;42.662;23.352;2023-03-01T08:19:08;4.25;;;1.67;;
41077;SDS011;26823;42.662;23.352;2023-03-01T08:21:36;2.00;;;1.77;;
41077;SDS011;26823;42.662;23.352;2023-03-01T08:24:05;2.40;;;2.20;;
41077;SDS011;26823;42.662;23.352;2023-03-01T08:26:31;3.53;;;2.10;;
41077;SDS011;26823;42.662;23.352;2023-03-01T08:28:57;2.80;;;2.00;;
41077;SDS011;26823;42.662;23.352;2023-03-01T08:31:24;2.63;;;2.17;;
41077;SDS011;26823;42.662;23.352;2023-03-01T08:33:53;3.15;;;2.30;;
41077;SDS011;26823;42.662;23.352;2023-03-01T08:36:21;4.53;;;2.83;;
41077;SDS011;26823;42.662;23.352;2023-03-01T08:38:48;2.72;;;2.25;;
41077;SDS011;26823;42.662;23.352;2023-03-01T08:41:14;2.10;;;1.90;;
41077;SDS011;26823;42.662;23.352;2023-03-01T08:43:40;2.08;;;1.98;;
41077;SDS011;26823;42.662;23.352;2023-03-01T08:46:06;2.42;;;1.90;;
41077;SDS011;26823;42.662;23.352;2023-03-01T08:48:31;4.38;;;2.08;;
41077;SDS011;26823;42.662;23.352;2023-03-01T08:50:57;6.78;;;2.30;;
41077;SDS011;26823;42.662;23.352;2023-03-01T08:53:32;4.78;;;2.78;;
41077;SDS011;26823;42.662;23.352;2023-03-01T08:55:59;2.92;;;2.42;;
41077;SDS011;26823;42.662;23.352;2023-03-01T08:58:26;4.43;;;2.50;;
41077;SDS011;26823;42.662;23.352;2023-03-01T09:00:51;2.80;;;2.60;;
41077;SDS011;26823;42.662;23.352;2023-03-01T09:03:16;5.25;;;2.95;;
41077;SDS011;26823;42.662;23.352;2023-03-01T09:05:42;2.45;;;2.25;;
41077;SDS011;26823;42.662;23.352;2023-03-01T09:08:07;2.40;;;2.20;;
41077;SDS011;26823;42.662;23.352;2023-03-01T09:10:36;3.30;;;2.70;;
41077;SDS011;26823;42.662;23.352;2023-03-01T09:13:02;2.63;;;2.42;;
41077;SDS011;26823;42.662;23.352;2023-03-01T09:15:28;2.60;;;2.10;;
41077;SDS011;26823;42.662;23.352;2023-03-01T09:17:53;2.30;;;2.10;;
41077;SDS011;26823;42.662;23.352;2023-03-01T09:20:18;3.55;;;2.00;;
41077;SDS011;26823;42.662;23.352;2023-03-01T09:22:44;2.38;;;2.17;;
41077;SDS011;26823;42.662;23.352;2023-03-01T09:25:09;2.05;;;1.83;;
41077;SDS011;26823;42.662;23.352;2023-03-01T09:27:35;1.77;;;1.52;;
41077;SDS011;26823;42.662;23.352;2023-03-01T09:30:00;3.05;;;1.92;;
41077;SDS011;26823;42.662;23.352;2023-03-01T09:32:26;4.57;;;1.50;;
41077;SDS011;26823;42.662;23.352;2023-03-01T09:34:51;1.33;;;1.17;;
41077;SDS011;26823;42.662;23.352;2023-03-01T09:37:35;2.25;;;1.25;;
41077;SDS011;26823;42.662;23.352;2023-03-01T09:40:03;1.73;;;1.63;;
41077;SDS011;26823;42.662;23.352;2023-03-01T09:42:32;1.48;;;1.30;;
41077;SDS011;26823;42.662;23.352;2023-03-01T09:45:11;1.80;;;1.25;;
41077;SDS011;26823;42.662;23.352;2023-03-01T09:47:47;2.15;;;1.80;;
41077;SDS011;26823;42.662;23.352;2023-03-01T09:55:33;6.50;;;1.42;;
41077;SDS011;26823;42.662;23.352;2023-03-01T10:00:49;1.70;;;1.30;;
41077;SDS011;26823;42.662;23.352;2023-03-01T10:09:25;1.30;;;1.20;;
41077;SDS011;26823;42.662;23.352;2023-03-01T10:11:54;2.38;;;1.65;;
41077;SDS011;26823;42.662;23.352;2023-03-01T10:14:33;1.92;;;1.60;;
41077;SDS011;26823;42.662;23.352;2023-03-01T10:17:03;1.50;;;1.40;;
41077;SDS011;26823;42.662;23.352;2023-03-01T10:22:14;1.80;;;1.65;;
41077;SDS011;26823;42.662;23.352;2023-03-01T10:24:42;1.90;;;1.80;;
41077;SDS011;26823;42.662;23.352;2023-03-01T10:27:22;3.03;;;1.38;;
41077;SDS011;26823;42.662;23.352;2023-03-01T10:30:00;1.67;;;1.58;;
41077;SDS011;26823;42.662;23.352;2023-03-01T10:32:49;3.03;;;1.40;;
41077;SDS011;26823;42.662;23.352;2023-03-01T10:35:19;2.35;;;2.15;;
41077;SDS011;26823;42.662;23.352;2023-03-01T10:40:33;2.00;;;1.63;;
41077;SDS011;26823;42.662;23.352;2023-03-01T10:43:01;2.88;;;1.90;;
41077;SDS011;26823;42.662;23.352;2023-03-01T10:53:33;3.40;;;2.15;;
41077;SDS011;26823;42.662;23.352;2023-03-01T10:58:32;2.42;;;1.90;;
41077;SDS011;26823;42.662;23.352;2023-03-01T11:01:00;1.88;;;1.70;;
41077;SDS011;26823;42.662;23.352;2023-03-01T11:03:28;1.95;;;1.60;;
41077;SDS011;26823;42.662;23.352;2023-03-01T11:08:45;2.78;;;1.80;;
41077;SDS011;26823;42.662;23.352;2023-03-01T11:11:21;2.15;;;1.80;;
41077;SDS011;26823;42.662;23.352;2023-03-01T11:16:39;1.83;;;1.52;;
41077;SDS011;26823;42.662;23.352;2023-03-01T11:21:42;2.22;;;2.00;;
41077;SDS011;26823;42.662;23.352;2023-03-01T11:24:10;2.75;;;2.08;;
41077;SDS011;26823;42.662;23.352;2023-03-01T11:26:39;2.20;;;2.00;;
41077;SDS011;26823;42.662;23.352;2023-03-01T11:29:12;2.33;;;1.88;;
41077;SDS011;26823;42.662;23.352;2023-03-01T11:31:43;2.10;;;1.63;;
41077;SDS011;26823;42.662;23.352;2023-03-01T11:34:12;5.97;;;2.35;;
41077;SDS011;26823;42.662;23.352;2023-03-01T11:36:46;2.90;;;1.90;;
41077;SDS011;26823;42.662;23.352;2023-03-01T11:39:36;2.80;;;2.20;;
41077;SDS011;26823;42.662;23.352;2023-03-01T11:42:12;2.33;;;2.13;;
41077;SDS011;26823;42.662;23.352;2023-03-01T11:44:51;2.47;;;2.05;;
41077;SDS011;26823;42.662;23.352;2023-03-01T11:50:15;2.13;;;1.92;;
41077;SDS011;26823;42.662;23.352;2023-03-01T11:57:59;2.40;;;2.20;;
41077;SDS011;26823;42.662;23.352;2023-03-01T12:14:48;4.32;;;3.28;;
41077;SDS011;26823;42.662;23.352;2023-03-01T12:28:47;4.68;;;3.33;;
41077;SDS011;26823;42.662;23.352;2023-03-01T12:34:18;3.97;;;2.92;;
41077;SDS011;26823;42.662;23.352;2023-03-01T12:39:35;3.60;;;3.03;;
41077;SDS011;26823;42.662;23.352;2023-03-01T12:50:49;3.47;;;3.08;;
41077;SDS011;26823;42.662;23.352;2023-03-01T12:53:31;4.65;;;3.20;;
41077;SDS011;26823;42.662;23.352;2023-03-01T12:56:00;3.45;;;3.00;;
41077;SDS011;26823;42.662;23.352;2023-03-01T13:10:15;3.97;;;2.97;;
41077;SDS011;26823;42.662;23.352;2023-03-01T13:13:30;3.80;;;3.40;;
41077;SDS011;26823;42.662;23.352;2023-03-01T13:15:38;5.40;;;3.20;;
41077;SDS011;26823;42.662;23.352;2023-03-01T13:31:56;3.15;;;2.63;;
41077;SDS011;26823;42.662;23.352;2023-03-01T13:33:56;2.40;;;2.20;;
41077;SDS011;26823;42.662;23.352;2023-03-01T13:54:56;3.55;;;2.60;;
41077;SDS011;26823;42.662;23.352;2023-03-01T13:57:24;3.10;;;2.45;;
41077;SDS011;26823;42.662;23.352;2023-03-01T13:59:54;3.97;;;2.65;;
41077;SDS011;26823;42.662;23.352;2023-03-01T14:02:20;9.85;;;3.13;;
41077;SDS011;26823;42.662;23.352;2023-03-01T14:04:55;3.90;;;3.08;;
41077;SDS011;26823;42.662;23.352;2023-03-01T14:07:22;3.58;;;2.85;;
41077;SDS011;26823;42.662;23.352;2023-03-01T14:09:55;5.15;;;2.40;;
41077;SDS011;26823;42.662;23.352;2023-03-01T14:20:14;4.40;;;2.35;;
41077;SDS011;26823;42.662;23.352;2023-03-01T14:22:46;5.10;;;2.75;;
41077;SDS011;26823;42.662;23.352;2023-03-01T14:30:41;4.38;;;2.53;;
41077;SDS011;26823;42.662;23.352;2023-03-01T14:33:19;3.00;;;2.47;;
41077;SDS011;26823;42.662;23.352;2023-03-01T14:35:53;3.08;;;1.95;;
41077;SDS011;26823;42.662;23.352;2023-03-01T14:38:32;3.38;;;2.22;;
41077;SDS011;26823;42.662;23.352;2023-03-01T14:41:15;2.80;;;2.10;;
41077;SDS011;26823;42.662;23.352;2023-03-01T14:43:46;3.22;;;1.60;;
41077;SDS011;26823;42.662;23.352;2023-03-01T14:46:32;6.22;;;2.72;;
41077;SDS011;26823;42.662;23.352;2023-03-01T14:51:34;3.60;;;1.75;;
41077;SDS011;26823;42.662;23.352;2023-03-01T14:54:01;5.32;;;1.85;;
41077;SDS011;26823;42.662;23.352;2023-03-01T14:56:27;4.80;;;1.80;;
41077;SDS011;26823;42.662;23.352;2023-03-01T14:59:07;2.13;;;1.70;;
41077;SDS011;26823;42.662;23.352;2023-03-01T15:01:34;3.30;;;1.65;;
41077;SDS011;26823;42.662;23.352;2023-03-01T15:04:00;5.40;;;2.30;;
41077;SDS011;26823;42.662;23.352;2023-03-01T15:06:27;6.10;;;1.88;;
41077;SDS011;26823;42.662;23.352;2023-03-01T15:08:53;7.30;;;2.10;;
41077;SDS011;26823;42.662;23.352;2023-03-01T15:11:31;4.80;;;2.03;;
41077;SDS011;26823;42.662;23.352;2023-03-01T15:13:58;5.18;;;2.30;;
41077;SDS011;26823;42.662;23.352;2023-03-01T15:16:26;3.72;;;2.50;;
41077;SDS011;26823;42.662;23.352;2023-03-01T15:21:24;8.25;;;2.67;;
41077;SDS011;26823;42.662;23.352;2023-03-01T15:23:56;2.97;;;2.42;;
41077;SDS011;26823;42.662;23.352;2023-03-01T15:26:28;4.93;;;3.00;;
41077;SDS011;26823;42.662;23.352;2023-03-01T15:28:55;4.15;;;3.33;;
41077;SDS011;26823;42.662;23.352;2023-03-01T15:33:50;4.38;;;2.95;;
41077;SDS011;26823;42.662;23.352;2023-03-01T15:39:23;4.00;;;3.00;;
41077;SDS011;26823;42.662;23.352;2023-03-01T15:48:02;7.63;;;3.03;;
41077;SDS011;26823;42.662;23.352;2023-03-01T15:52:58;5.15;;;3.67;;
41077;SDS011;26823;42.662;23.352;2023-03-01T15:55:26;6.03;;;4.03;;
41077;SDS011;26823;42.662;23.352;2023-03-01T15:57:58;5.00;;;3.28;;
41077;SDS011;26823;42.662;23.352;2023-03-01T16:00:25;5.57;;;3.55;;
41077;SDS011;26823;42.662;23.352;2023-03-01T16:02:51;6.55;;;3.80;;
41077;SDS011;26823;42.662;23.352;2023-03-01T16:05:21;6.15;;;2.95;;
41077;SDS011;26823;42.662;23.352;2023-03-01T16:07:49;4.32;;;3.03;;
41077;SDS011;26823;42.662;23.352;2023-03-01T16:10:15;4.68;;;3.05;;
41077;SDS011;26823;42.662;23.352;2023-03-01T16:12:41;4.93;;;3.17;;
41077;SDS011;26823;42.662;23.352;2023-03-01T16:15:40;3.25;;;2.47;;
41077;SDS011;26823;42.662;23.352;2023-03-01T16:18:01;3.93;;;2.63;;
41077;SDS011;26823;42.662;23.352;2023-03-01T16:20:28;3.67;;;2.72;;
41077;SDS011;26823;42.662;23.352;2023-03-01T16:22:55;4.38;;;2.70;;
41077;SDS011;26823;42.662;23.352;2023-03-01T16:25:23;6.18;;;2.83;;
41077;SDS011;26823;42.662;23.352;2023-03-01T16:27:49;4.60;;;2.75;;
41077;SDS011;26823;42.662;23.352;2023-03-01T16:30:16;5.07;;;2.90;;
41077;SDS011;26823;42.662;23.352;2023-03-01T16:32:44;8.13;;;2.83;;
41077;SDS011;26823;42.662;23.352;2023-03-01T16:35:11;3.85;;;2.55;;
41077;SDS011;26823;42.662;23.352;2023-03-01T16:37:39;4.32;;;2.95;;
41077;SDS011;26823;42.662;23.352;2023-03-01T16:40:06;4.55;;;2.28;;
41077;SDS011;26823;42.662;23.352;2023-03-01T16:42:56;4.70;;;2.40;;
41077;SDS011;26823;42.662;23.352;2023-03-01T16:45:25;3.45;;;2.20;;
41077;SDS011;26823;42.662;23.352;2023-03-01T16:47:51;3.63;;;2.33;;
41077;SDS011;26823;42.662;23.352;2023-03-01T16:50:17;4.50;;;2.50;;
41077;SDS011;26823;42.662;23.352;2023-03-01T16:52:43;3.42;;;2.15;;
41077;SDS011;26823;42.662;23.352;2023-03-01T16:55:08;4.88;;;2.35;;
41077;SDS011;26823;42.662;23.352;2023-03-01T16:57:35;4.63;;;2.30;;
41077;SDS011;26823;42.662;23.352;2023-03-01T17:00:01;3.13;;;2.17;;
41077;SDS011;26823;42.662;23.352;2023-03-01T17:02:29;4.38;;;2.35;;
41077;SDS011;26823;42.662;23.352;2023-03-01T17:04:55;3.80;;;2.53;;
41077;SDS011;26823;42.662;23.352;2023-03-01T17:07:21;4.25;;;2.67;;
41077;SDS011;26823;42.662;23.352;2023-03-01T17:09:47;5.18;;;2.45;;
41077;SDS011;26823;42.662;23.352;2023-03-01T17:12:12;3.50;;;2.25;;
41077;SDS011;26823;42.662;23.352;2023-03-01T17:14:38;3.45;;;2.03;;
41077;SDS011;26823;42.662;23.352;2023-03-01T17:17:06;4.53;;;2.40;;
41077;SDS011;26823;42.662;23.352;2023-03-01T17:19:32;4.10;;;2.33;;
41077;SDS011;26823;42.662;23.352;2023-03-01T17:21:58;5.93;;;2.85;;
41077;SDS011;26823;42.662;23.352;2023-03-01T17:24:25;5.88;;;2.42;;
41077;SDS011;26823;42.662;23.352;2023-03-01T17:26:50;6.70;;;2.80;;
41077;SDS011;26823;42.662;23.352;2023-03-01T17:29:23;4.30;;;2.85;;
41077;SDS011;26823;42.662;23.352;2023-03-01T17:31:49;7.38;;;2.85;;
41077;SDS011;26823;42.662;23.352;2023-03-01T17:34:30;6.35;;;3.25;;